This is the latest recevied weather packets stored in our database for station/object K4MUW-4. If no packets are shown the sender has not sent any weather packets the latest 1 day(s).
| Time | Temp. | Humidity | Pressure | Rain* | Wind** | Luminosity | Snow |
|---|---|---|---|---|---|---|---|
| 1778105377 | 24.44° C | 60% | 1008 hPa | 0 mm | 0 m/s | - | - |
| 1778104476 | 25° C | 59% | 1009 hPa | 0 mm | 1.34 m/s, 161° | - | - |
| 1778103575 | 25° C | 58% | 1009 hPa | 0 mm | 0 m/s | - | - |
| 1778102974 | 25.56° C | 57% | 1009 hPa | 0 mm | 1.34 m/s, 165° | - | - |
| 1778102073 | 25.56° C | 57% | 1009 hPa | 0 mm | 1.79 m/s, 225° | - | - |
| 1778101172 | 25° C | 57% | 1009 hPa | 0 mm | 2.24 m/s, 236° | - | - |
| 1778099966 | 25.56° C | 55% | 1009 hPa | 0 mm | 1.79 m/s, 177° | - | - |
| 1778099360 | 25.56° C | 55% | 1009 hPa | 0 mm | 2.68 m/s, 216° | - | - |
| 1778099060 | 25.56° C | 55% | 1009 hPa | 0 mm | 1.34 m/s, 232° | - | - |
| 1778097558 | 26.11° C | 56% | 1009 hPa | 0 mm | 1.34 m/s, 164° | - | - |
| 1778096056 | 26.11° C | 57% | 1010 hPa | 0 mm | 2.68 m/s, 287° | - | - |
| 1778095155 | 25.56° C | 57% | 1010 hPa | 0 mm | 2.24 m/s, 183° | - | - |
| 1778093944 | 25.56° C | 57% | 1010 hPa | 0 mm | 2.24 m/s, 193° | - | - |
| 1778092437 | 25° C | 59% | 1010 hPa | 0 mm | 0 m/s | - | - |
| 1778090545 | 24.44° C | 60% | 1011 hPa | 0 mm | 0 m/s | - | - |
| 1778089944 | 24.44° C | 59% | 1011 hPa | 0 mm | 1.34 m/s, 192° | - | - |
| 1778089640 | 24.44° C | 59% | 1011 hPa | 0 mm | 0 m/s | - | - |
| 1778089339 | 24.44° C | 58% | 1011 hPa | 0 mm | 0 m/s | - | - |
| 1778087170 | 25° C | 57% | 1011 hPa | 0 mm | 1.34 m/s, 239° | - | - |
| 1778086569 | 25° C | 57% | 1010 hPa | 0 mm | 1.79 m/s, 178° | - | - |
| 1778085663 | 24.44° C | 60% | 1011 hPa | 0 mm | 2.68 m/s, 158° | - | - |
| 1778084152 | 23.89° C | 64% | 1011 hPa | 0 mm | 2.24 m/s, 214° | - | - |
| 1778083547 | 23.33° C | 66% | 1011 hPa | 0 mm | 1.79 m/s, 220° | - | - |
| 1778082946 | 23.33° C | 68% | 1011 hPa | 0 mm | 2.68 m/s, 210° | - | - |
| 1778082646 | 22.78° C | 68% | 1011 hPa | 0 mm | 2.24 m/s, 260° | - | - |
* Rain latest hour (hover to see other rain measurements)
** Current wind speed in m/s (hover to see current wind gust speed)